Time;durP1;ratioP1;P1;durP2;ratioP2;P2;SDS_P1;SDS_P2;PMS_P1;PMS_P2;Temp;Humidity;BMP_temperature;BMP_pressure;BME280_temperature;BME280_humidity;BME280_pressure;Samples;Min_cycle;Max_cycle;Signal;HPM_P1;HPM_P2
2021/07/31 00:01:07;;;;;;;9.05;8.15;;;20.40;84.70;;;;;;2048316;28;20030;-69
2021/07/31 00:02:08;;;;;;;10.02;8.50;;;20.40;85.00;;;;;;2049022;28;20027;-68
2021/07/31 00:03:09;;;;;;;10.57;8.25;;;20.40;85.30;;;;;;2049005;28;20040;-69
2021/07/31 00:04:09;;;;;;;9.38;8.38;;;20.40;85.40;;;;;;2048790;28;20035;-68
2021/07/31 00:05:10;;;;;;;9.48;8.48;;;20.40;85.00;;;;;;2048836;28;20043;-68
2021/07/31 00:06:11;;;;;;;10.73;8.55;;;20.50;85.00;;;;;;2048893;28;20050;-68
2021/07/31 00:07:11;;;;;;;9.25;7.68;;;20.40;85.20;;;;;;2048944;28;20122;-67
2021/07/31 00:08:12;;;;;;;9.75;8.60;;;20.40;85.50;;;;;;2048917;28;20027;-67
2021/07/31 00:09:13;;;;;;;9.80;8.25;;;20.40;85.40;;;;;;2049135;28;20031;-67
2021/07/31 00:10:13;;;;;;;9.18;8.27;;;20.40;85.30;;;;;;2048125;28;20043;-68
2021/07/31 00:11:14;;;;;;;9.90;8.02;;;20.40;85.30;;;;;;2048770;28;20038;-68
2021/07/31 00:12:14;;;;;;;9.02;8.10;;;20.40;85.50;;;;;;2048077;28;20467;-67
2021/07/31 00:13:15;;;;;;;9.15;8.25;;;20.40;85.90;;;;;;2039955;29;20028;-68
2021/07/31 00:14:16;;;;;;;8.63;7.82;;;20.40;85.90;;;;;;2047947;29;20035;-68
2021/07/31 00:15:16;;;;;;;9.38;8.05;;;20.40;85.90;;;;;;2048062;29;20027;-67
2021/07/31 00:16:17;;;;;;;9.15;7.85;;;20.40;86.40;;;;;;2048746;28;20499;-68
2021/07/31 00:17:18;;;;;;;9.32;8.32;;;20.30;86.50;;;;;;2048607;28;20078;-67
2021/07/31 00:18:19;;;;;;;10.75;8.63;;;20.30;86.80;;;;;;2048540;28;20030;-67
2021/07/31 00:19:20;;;;;;;8.25;7.45;;;20.30;87.00;;;;;;2047826;29;20106;-68
2021/07/31 00:20:20;;;;;;;12.00;8.15;;;20.30;87.10;;;;;;2047267;29;20546;-67
2021/07/31 00:21:22;;;;;;;9.27;8.27;;;20.30;87.00;;;;;;2047950;28;20035;-68
2021/07/31 00:22:23;;;;;;;9.25;8.00;;;20.30;87.20;;;;;;2048166;29;20027;-68
2021/07/31 00:23:27;;;;;;;9.52;8.07;;;20.30;87.00;;;;;;2048593;28;20027;-68
2021/07/31 00:24:29;;;;;;;10.13;8.25;;;20.30;87.20;;;;;;2048521;28;20023;-67
2021/07/31 00:25:29;;;;;;;9.40;8.40;;;20.30;87.00;;;;;;2047993;29;20657;-68
2021/07/31 00:26:30;;;;;;;9.10;8.20;;;20.30;87.40;;;;;;2047982;29;20035;-67
2021/07/31 00:27:30;;;;;;;9.32;8.35;;;20.30;87.20;;;;;;2047916;29;20023;-68
2021/07/31 00:28:31;;;;;;;8.55;7.72;;;20.30;86.80;;;;;;2048008;29;20027;-68
2021/07/31 00:29:31;;;;;;;10.68;8.68;;;20.30;86.70;;;;;;2048078;28;20067;-68
2021/07/31 00:30:33;;;;;;;9.48;7.93;;;20.30;86.70;;;;;;2048686;28;20027;-67
2021/07/31 00:31:34;;;;;;;9.32;8.20;;;20.30;87.10;;;;;;2048462;28;20055;-68
2021/07/31 00:32:37;;;;;;;9.25;8.00;;;20.30;87.90;;;;;;2047934;29;20451;-66
2021/07/31 00:33:37;;;;;;;8.75;7.88;;;20.30;87.00;;;;;;2047962;29;20027;-68
2021/07/31 00:34:38;;;;;;;9.23;8.23;;;20.30;86.80;;;;;;2047778;28;20035;-67
2021/07/31 00:35:38;;;;;;;9.90;8.43;;;20.30;86.70;;;;;;2047938;28;20042;-68
2021/07/31 00:36:39;;;;;;;9.23;8.30;;;20.40;86.70;;;;;;2047747;28;20212;-67
2021/07/31 00:37:40;;;;;;;9.10;8.20;;;20.40;86.50;;;;;;2048089;28;20027;-68
2021/07/31 00:38:43;;;;;;;9.20;8.00;;;20.40;86.40;;;;;;2048371;28;20403;-67
2021/07/31 00:39:43;;;;;;;9.05;8.15;;;20.40;87.20;;;;;;2047630;28;20126;-66
2021/07/31 00:40:45;;;;;;;10.52;8.18;;;20.40;86.10;;;;;;2048437;28;20440;-68
2021/07/31 00:41:45;;;;;;;9.52;7.90;;;20.50;85.10;;;;;;2048488;28;20042;-67
2021/07/31 00:42:46;;;;;;;9.00;7.97;;;20.50;84.70;;;;;;2048508;28;20031;-68
2021/07/31 00:43:47;;;;;;;9.77;7.88;;;20.60;84.40;;;;;;2048757;28;20027;-69
2021/07/31 00:44:47;;;;;;;8.80;7.50;;;20.60;84.30;;;;;;2048528;28;20435;-68
2021/07/31 00:45:48;;;;;;;10.15;7.97;;;20.60;84.10;;;;;;2048360;28;20023;-68
2021/07/31 00:46:49;;;;;;;8.98;7.95;;;20.70;83.90;;;;;;2048409;28;20031;-69
2021/07/31 00:47:51;;;;;;;9.23;7.80;;;20.70;82.70;;;;;;2047764;28;20027;-69
2021/07/31 00:48:52;;;;;;;10.90;7.47;;;20.70;82.20;;;;;;2047764;28;20510;-69
2021/07/31 00:49:53;;;;;;;11.60;8.13;;;20.80;81.70;;;;;;2047685;28;20027;-69
2021/07/31 00:50:55;;;;;;;13.32;8.15;;;20.90;81.10;;;;;;2047135;28;20023;-69
2021/07/31 00:51:57;;;;;;;10.70;8.25;;;20.90;80.60;;;;;;2047896;29;20050;-69
2021/07/31 00:52:59;;;;;;;9.30;7.50;;;21.00;79.50;;;;;;2048378;28;20026;-68
2021/07/31 00:54:00;;;;;;;10.20;7.82;;;21.00;79.50;;;;;;2048125;28;20031;-68
2021/07/31 00:55:02;;;;;;;9.55;7.80;;;21.10;78.90;;;;;;2048306;28;20027;-69
2021/07/31 00:56:04;;;;;;;11.07;8.10;;;21.10;78.80;;;;;;2047689;28;20051;-68
2021/07/31 00:57:06;;;;;;;9.48;7.70;;;21.10;78.70;;;;;;2047859;29;20472;-67
2021/07/31 00:58:27;;;;;;;10.93;7.88;;;21.20;78.50;;;;;;2047802;28;20031;-68
2021/07/31 00:59:34;;;;;;;9.85;8.00;;;21.20;78.80;;;;;;2040497;29;20427;-68
2021/07/31 01:00:34;;;;;;;10.25;7.85;;;21.20;78.60;;;;;;2047478;28;20024;-68
2021/07/31 01:01:35;;;;;;;9.60;7.80;;;21.20;78.80;;;;;;2047821;29;20041;-68
2021/07/31 01:02:36;;;;;;;9.73;8.07;;;21.20;78.50;;;;;;2048249;28;20031;-68
2021/07/31 01:03:36;;;;;;;10.65;7.93;;;21.10;78.30;;;;;;2047729;28;20030;-68
2021/07/31 01:04:37;;;;;;;8.52;7.60;;;21.10;78.30;;;;;;2039899;29;20040;-69
2021/07/31 01:05:38;;;;;;;9.77;8.18;;;21.10;78.50;;;;;;2039869;29;20058;-68
2021/07/31 01:06:38;;;;;;;8.93;7.53;;;21.10;78.70;;;;;;2047760;29;20850;-68
2021/07/31 01:07:40;;;;;;;9.35;7.85;;;21.10;78.70;;;;;;2048385;28;20043;-68
2021/07/31 01:08:42;;;;;;;11.95;7.50;;;21.10;78.60;;;;;;2048391;28;20138;-67
2021/07/31 01:09:48;;;;;;;10.40;7.50;;;21.00;78.50;;;;;;2046869;28;20035;-68
2021/07/31 01:10:49;;;;;;;11.27;7.70;;;21.10;78.50;;;;;;2047706;29;20038;-69
2021/07/31 01:11:54;;;;;;;10.02;7.60;;;21.10;78.20;;;;;;2047633;28;20034;-69
2021/07/31 01:12:57;;;;;;;10.93;7.60;;;21.10;78.40;;;;;;2047804;29;20039;-67
2021/07/31 01:14:00;;;;;;;8.88;7.82;;;21.10;79.00;;;;;;2048269;28;20491;-68
2021/07/31 01:15:01;;;;;;;9.55;7.55;;;21.10;78.80;;;;;;2047710;28;20037;-67
2021/07/31 01:16:08;;;;;;;8.25;7.38;;;21.00;78.20;;;;;;2047680;29;20027;-66
2021/07/31 01:17:12;;;;;;;9.05;7.45;;;21.00;78.00;;;;;;2047756;28;20043;-68
2021/07/31 01:18:12;;;;;;;8.40;7.50;;;21.00;78.20;;;;;;2047676;29;20094;-67
2021/07/31 01:19:13;;;;;;;10.43;7.80;;;21.00;78.10;;;;;;2048373;28;20411;-68
2021/07/31 01:20:14;;;;;;;9.68;7.32;;;21.00;78.20;;;;;;2047691;28;20457;-67
2021/07/31 01:21:41;;;;;;;8.90;7.60;;;21.00;78.40;;;;;;2047683;28;20805;-67
2021/07/31 01:23:00;;;;;;;9.63;7.22;;;21.00;78.00;;;;;;2044660;29;20033;-67
2021/07/31 01:24:00;;;;;;;8.13;7.32;;;21.00;78.00;;;;;;2047467;29;20020;-67
2021/07/31 01:25:02;;;;;;;9.52;7.47;;;21.00;78.20;;;;;;2048123;28;20104;-67
2021/07/31 01:26:03;;;;;;;12.45;7.80;;;21.00;78.30;;;;;;2048271;28;20023;-66
2021/07/31 01:27:04;;;;;;;8.95;7.50;;;21.10;77.90;;;;;;2048309;28;20050;-67
2021/07/31 01:28:05;;;;;;;9.00;7.43;;;21.00;78.00;;;;;;2047588;28;20023;-67
2021/07/31 01:29:07;;;;;;;9.07;7.57;;;21.10;78.10;;;;;;2047753;29;20514;-67
2021/07/31 01:30:11;;;;;;;7.80;7.00;;;21.00;78.00;;;;;;2046903;28;20039;-68
2021/07/31 01:31:12;;;;;;;8.60;7.55;;;21.00;78.40;;;;;;2039907;29;20055;-66
2021/07/31 01:32:13;;;;;;;8.32;7.47;;;21.00;78.30;;;;;;2047599;28;20082;-67
2021/07/31 01:33:15;;;;;;;8.85;7.95;;;21.00;78.10;;;;;;2047464;29;20086;-67
2021/07/31 01:34:16;;;;;;;8.15;7.35;;;20.90;78.10;;;;;;2048312;28;20415;-68
2021/07/31 01:35:16;;;;;;;8.68;7.45;;;21.00;78.40;;;;;;2046957;29;20031;-68
2021/07/31 01:36:17;;;;;;;10.32;7.45;;;21.00;78.50;;;;;;2047607;29;20023;-68
2021/07/31 01:37:18;;;;;;;8.40;7.60;;;21.00;78.60;;;;;;2047513;28;20039;-68
2021/07/31 01:38:21;;;;;;;9.10;7.57;;;21.00;78.70;;;;;;2047590;28;20581;-68
2021/07/31 01:39:22;;;;;;;9.25;7.28;;;21.00;78.80;;;;;;2048000;28;20092;-67
2021/07/31 01:40:22;;;;;;;9.05;7.47;;;20.90;78.60;;;;;;2047401;28;20039;-68
2021/07/31 01:41:24;;;;;;;8.82;7.68;;;20.90;78.80;;;;;;2048111;28;20035;-68
2021/07/31 01:42:26;;;;;;;10.43;7.45;;;20.90;79.00;;;;;;2048110;28;20506;-67
2021/07/31 01:43:27;;;;;;;8.32;7.15;;;20.90;78.90;;;;;;2048150;28;20031;-67
2021/07/31 01:44:28;;;;;;;8.75;7.85;;;20.90;79.00;;;;;;2047498;29;20039;-67
2021/07/31 01:45:29;;;;;;;11.90;7.30;;;20.90;78.80;;;;;;2047565;28;20031;-67
2021/07/31 01:46:32;;;;;;;10.60;7.82;;;20.90;78.80;;;;;;2047471;28;20031;-68
2021/07/31 01:47:33;;;;;;;10.32;7.90;;;20.90;79.00;;;;;;2047433;29;20028;-68
2021/07/31 01:48:34;;;;;;;9.63;8.00;;;20.90;78.80;;;;;;2047247;28;20073;-67
2021/07/31 01:49:37;;;;;;;9.50;7.55;;;20.90;78.90;;;;;;2039564;29;20058;-68
2021/07/31 01:50:44;;;;;;;10.18;7.85;;;20.90;78.90;;;;;;2047681;29;20443;-69
2021/07/31 01:51:48;;;;;;;10.48;7.40;;;20.90;78.80;;;;;;2047482;28;20478;-68
2021/07/31 01:52:48;;;;;;;8.77;7.53;;;20.90;79.40;;;;;;2047520;28;20028;-67
2021/07/31 01:53:50;;;;;;;11.27;7.57;;;20.90;79.10;;;;;;2047514;28;20027;-69
2021/07/31 01:54:52;;;;;;;11.00;7.85;;;20.80;78.90;;;;;;2039659;29;20123;-68
2021/07/31 01:55:53;;;;;;;10.50;7.22;;;20.80;79.30;;;;;;2039788;29;20103;-68
2021/07/31 01:56:54;;;;;;;9.18;7.53;;;20.80;79.40;;;;;;2039560;29;20062;-68
2021/07/31 01:57:59;;;;;;;8.90;7.60;;;20.80;79.60;;;;;;2040250;29;20042;-68
2021/07/31 01:59:14;;;;;;;11.10;7.88;;;20.80;79.10;;;;;;2041375;29;20024;-67
2021/07/31 02:00:16;;;;;;;12.15;7.63;;;20.80;79.80;;;;;;2038969;29;20031;-68
2021/07/31 02:01:27;;;;;;;9.27;7.68;;;20.80;79.50;;;;;;2041012;29;20074;-68
2021/07/31 02:02:30;;;;;;;9.50;7.75;;;20.80;79.10;;;;;;2048467;28;20067;-68
2021/07/31 02:03:32;;;;;;;11.65;8.27;;;20.80;79.10;;;;;;2049124;29;20146;-68
2021/07/31 02:05:02;;;;;;;10.13;7.57;;;20.80;79.10;;;;;;2040584;28;20035;-68
2021/07/31 02:06:06;;;;;;;9.43;7.70;;;20.80;78.90;;;;;;2049070;28;20027;-68
2021/07/31 02:07:09;;;;;;;11.55;8.10;;;20.80;79.00;;;;;;2049072;29;20055;-68
2021/07/31 02:08:09;;;;;;;10.98;7.90;;;20.80;78.50;;;;;;2049056;29;20031;-68
2021/07/31 02:09:23;;;;;;;8.88;7.50;;;20.80;78.40;;;;;;2049043;29;20049;-68
2021/07/31 02:10:23;;;;;;;10.88;7.35;;;20.80;78.50;;;;;;2048033;28;20093;-68
2021/07/31 02:11:27;;;;;;;9.27;7.50;;;20.80;78.30;;;;;;2049016;29;20067;-68
2021/07/31 02:12:35;;;;;;;8.60;7.13;;;20.80;78.10;;;;;;2049664;28;20035;-68
2021/07/31 02:13:36;;;;;;;10.40;7.82;;;20.80;78.30;;;;;;2049469;28;20742;-68
2021/07/31 02:14:40;;;;;;;10.23;7.93;;;20.80;78.00;;;;;;2048992;29;20047;-68
2021/07/31 02:15:45;;;;;;;9.38;7.72;;;20.80;78.00;;;;;;2041738;29;20027;-68
2021/07/31 02:16:48;;;;;;;8.73;7.20;;;20.80;77.90;;;;;;2049042;29;20035;-68
2021/07/31 02:17:52;;;;;;;10.00;7.80;;;20.80;77.70;;;;;;2049515;28;20047;-68
2021/07/31 02:18:53;;;;;;;10.23;7.93;;;20.80;77.90;;;;;;2049553;28;20046;-68
2021/07/31 02:19:55;;;;;;;8.43;7.38;;;20.80;77.90;;;;;;2048240;28;20041;-68
2021/07/31 02:21:16;;;;;;;12.02;7.88;;;20.80;78.00;;;;;;2049069;29;20043;-68
2021/07/31 02:22:37;;;;;;;10.30;7.75;;;20.80;77.80;;;;;;2048894;29;20487;-68
2021/07/31 02:23:57;;;;;;;;;;;20.80;77.60;;;;;;2033106;29;20119;-67
2021/07/31 02:25:27;;;;;;;10.85;7.50;;;20.80;77.70;;;;;;2049365;29;19910;-68
2021/07/31 02:26:56;;;;;;;8.52;7.60;;;20.80;77.70;;;;;;2032854;29;20056;-68
2021/07/31 02:28:09;;;;;;;9.70;7.28;;;20.80;77.80;;;;;;2026790;29;20830;-68
2021/07/31 02:29:10;;;;;;;9.82;7.65;;;20.80;78.00;;;;;;2041013;29;20492;-68
2021/07/31 02:30:13;;;;;;;8.38;7.07;;;20.80;77.60;;;;;;2040554;29;20040;-68
2021/07/31 02:31:15;;;;;;;8.85;7.22;;;20.80;77.60;;;;;;2040973;29;20032;-68
2021/07/31 02:32:21;;;;;;;7.70;6.90;;;20.80;78.00;;;;;;2048657;29;20042;-68
2021/07/31 02:33:22;;;;;;;9.73;7.20;;;20.80;78.00;;;;;;2048881;29;20130;-68
2021/07/31 02:34:27;;;;;;;8.93;7.18;;;20.80;78.00;;;;;;2048746;29;20057;-68
2021/07/31 02:35:33;;;;;;;12.05;7.38;;;20.80;78.00;;;;;;2048910;29;20133;-68
2021/07/31 02:36:52;;;;;;;7.97;7.18;;;20.80;78.20;;;;;;2049380;29;20032;-67
2021/07/31 02:37:57;;;;;;;9.60;7.10;;;20.80;77.50;;;;;;2048749;29;20027;-68
2021/07/31 02:38:58;;;;;;;11.65;7.55;;;20.90;77.60;;;;;;2040833;29;20103;-68
2021/07/31 02:39:59;;;;;;;9.93;7.38;;;20.90;77.40;;;;;;2040041;29;20087;-68
2021/07/31 02:41:04;;;;;;;8.75;7.28;;;20.90;77.30;;;;;;2048594;29;20028;-68
2021/07/31 02:42:08;;;;;;;9.48;7.30;;;20.90;77.10;;;;;;2041201;29;20027;-68
2021/07/31 02:43:14;;;;;;;11.38;7.38;;;20.90;76.90;;;;;;2048794;29;20027;-68
2021/07/31 02:44:19;;;;;;;8.63;7.72;;;20.90;76.40;;;;;;2048609;28;20031;-67
2021/07/31 02:45:21;;;;;;;8.52;7.40;;;21.00;76.60;;;;;;2040785;29;20039;-67
2021/07/31 02:46:22;;;;;;;7.63;6.65;;;21.00;76.40;;;;;;2048744;28;20439;-68
2021/07/31 02:47:23;;;;;;;8.18;7.00;;;21.00;76.50;;;;;;2049321;28;20023;-67
2021/07/31 02:48:24;;;;;;;9.15;7.07;;;21.00;76.50;;;;;;2049323;28;20035;-67
2021/07/31 02:49:24;;;;;;;9.23;7.32;;;21.00;76.60;;;;;;2049203;28;20027;-68
2021/07/31 02:50:26;;;;;;;7.80;7.00;;;21.00;76.70;;;;;;2048601;28;20043;-67
2021/07/31 02:51:40;;;;;;;12.13;7.07;;;21.00;76.50;;;;;;2049378;28;20027;-67
2021/07/31 02:53:00;;;;;;;7.75;6.93;;;21.00;76.40;;;;;;2048720;28;20062;-68
2021/07/31 02:54:00;;;;;;;9.32;7.13;;;21.00;76.40;;;;;;2040722;29;20032;-68
2021/07/31 02:55:05;;;;;;;11.82;7.18;;;21.00;76.00;;;;;;2048587;29;20035;-68
2021/07/31 02:56:09;;;;;;;9.57;6.90;;;21.10;75.90;;;;;;2041324;29;20064;-67
2021/07/31 02:57:10;;;;;;;7.93;7.13;;;21.10;76.00;;;;;;2032843;29;20107;-67
2021/07/31 02:58:12;;;;;;;8.60;7.20;;;21.10;75.60;;;;;;2040811;29;20031;-68
2021/07/31 02:59:12;;;;;;;10.05;7.30;;;21.10;75.50;;;;;;2048676;29;20034;-67
2021/07/31 03:00:13;;;;;;;10.70;7.10;;;21.10;75.80;;;;;;2048535;28;20019;-67
2021/07/31 03:01:14;;;;;;;9.40;7.50;;;21.10;76.00;;;;;;2049214;28;20023;-67
2021/07/31 03:02:15;;;;;;;8.82;6.78;;;21.10;75.50;;;;;;2049269;28;20035;-68
2021/07/31 03:03:21;;;;;;;9.88;7.20;;;21.20;75.70;;;;;;2048656;29;20082;-68
2021/07/31 03:04:21;;;;;;;9.30;7.10;;;21.20;75.30;;;;;;2048690;28;20098;-68
2021/07/31 03:05:26;;;;;;;12.88;7.05;;;21.20;75.20;;;;;;2048555;28;20063;-68
2021/07/31 03:06:36;;;;;;;9.05;7.13;;;21.20;75.50;;;;;;2033951;29;20175;-67
2021/07/31 03:07:41;;;;;;;11.05;7.35;;;21.20;75.70;;;;;;2035036;29;20036;-67
2021/07/31 03:08:42;;;;;;;7.90;7.10;;;21.20;75.90;;;;;;2048435;28;20039;-69
2021/07/31 03:09:42;;;;;;;9.52;7.00;;;21.20;75.80;;;;;;2049237;28;20108;-68
2021/07/31 03:10:43;;;;;;;8.73;7.03;;;21.20;75.70;;;;;;2047755;28;20058;-68
2021/07/31 03:11:44;;;;;;;7.93;7.13;;;21.20;75.50;;;;;;2048549;29;20038;-68
2021/07/31 03:12:46;;;;;;;7.63;6.85;;;21.20;75.00;;;;;;2048436;28;20375;-69
2021/07/31 03:13:47;;;;;;;8.13;7.10;;;21.20;75.20;;;;;;2032103;29;20036;-69
2021/07/31 03:14:48;;;;;;;9.18;7.43;;;21.20;75.10;;;;;;2040566;29;20416;-69
2021/07/31 03:15:49;;;;;;;10.07;7.30;;;21.20;75.00;;;;;;2049126;28;20098;-67
2021/07/31 03:16:51;;;;;;;8.45;7.13;;;21.20;75.10;;;;;;2048574;29;20031;-68
2021/07/31 03:17:55;;;;;;;9.13;6.97;;;21.20;74.60;;;;;;2040577;29;20447;-68
2021/07/31 03:18:57;;;;;;;7.80;6.82;;;21.20;74.40;;;;;;2040814;29;20020;-69
2021/07/31 03:19:58;;;;;;;9.20;7.20;;;21.30;74.80;;;;;;2047654;29;20027;-68
2021/07/31 03:20:59;;;;;;;10.05;7.00;;;21.30;74.90;;;;;;2048461;29;20066;-69
2021/07/31 03:22:20;;;;;;;9.30;7.07;;;21.30;74.60;;;;;;2048394;28;20122;-69
2021/07/31 03:23:24;;;;;;;10.73;6.82;;;21.30;74.70;;;;;;2048495;29;20026;-68
2021/07/31 03:24:25;;;;;;;7.70;6.90;;;21.20;74.80;;;;;;2048479;28;20806;-69
2021/07/31 03:25:26;;;;;;;12.25;7.10;;;21.20;74.80;;;;;;2048522;29;20034;-68
2021/07/31 03:26:27;;;;;;;8.90;6.80;;;21.20;74.90;;;;;;2048454;29;20030;-69
2021/07/31 03:27:28;;;;;;;7.53;6.70;;;21.30;74.70;;;;;;2048431;29;20028;-69
2021/07/31 03:28:50;;;;;;;7.80;7.00;;;21.20;74.60;;;;;;2048520;29;20503;-68
2021/07/31 03:29:52;;;;;;;10.95;7.40;;;21.20;74.80;;;;;;2047573;28;20027;-68
2021/07/31 03:30:54;;;;;;;10.55;6.90;;;21.20;74.50;;;;;;2040413;29;20054;-69
2021/07/31 03:31:54;;;;;;;8.15;6.88;;;21.20;74.10;;;;;;2048410;29;20670;-68
2021/07/31 03:32:56;;;;;;;10.50;6.70;;;21.20;74.30;;;;;;2049024;28;20078;-68
2021/07/31 03:33:58;;;;;;;9.25;7.03;;;21.20;75.10;;;;;;2048304;28;20776;-68
2021/07/31 03:35:01;;;;;;;9.30;6.45;;;21.20;74.70;;;;;;2040505;29;20023;-67
2021/07/31 03:36:02;;;;;;;8.55;7.10;;;21.20;74.10;;;;;;2048307;29;20015;-68
2021/07/31 03:37:10;;;;;;;9.15;7.00;;;21.20;73.90;;;;;;2048096;28;20572;-69
2021/07/31 03:38:11;;;;;;;7.80;6.90;;;21.30;73.60;;;;;;2040172;29;20451;-67
2021/07/31 03:39:13;;;;;;;9.30;6.38;;;21.20;74.50;;;;;;2048406;29;20035;-67
2021/07/31 03:40:14;;;;;;;10.45;6.45;;;21.30;74.20;;;;;;2048192;28;20090;-68
2021/07/31 03:41:15;;;;;;;8.57;6.60;;;21.30;73.70;;;;;;2048845;28;20122;-68
2021/07/31 03:42:22;;;;;;;9.70;6.82;;;21.30;73.20;;;;;;2048258;28;20028;-68
2021/07/31 03:43:26;;;;;;;7.70;6.72;;;21.30;73.50;;;;;;2048326;29;20019;-67
2021/07/31 03:44:27;;;;;;;6.65;6.03;;;21.30;73.00;;;;;;2048893;28;20074;-67
2021/07/31 03:45:28;;;;;;;9.00;7.03;;;21.30;72.80;;;;;;2048890;28;20051;-68
2021/07/31 03:46:31;;;;;;;8.15;6.85;;;21.30;73.20;;;;;;2048234;28;20031;-67
2021/07/31 03:47:32;;;;;;;8.85;6.63;;;21.30;73.30;;;;;;2048301;29;20559;-67
2021/07/31 03:48:33;;;;;;;10.13;6.60;;;21.30;73.20;;;;;;2048637;28;20105;-67
2021/07/31 03:49:34;;;;;;;10.63;6.95;;;21.30;73.00;;;;;;2040612;29;20032;-68
2021/07/31 03:50:40;;;;;;;7.43;6.28;;;21.40;72.20;;;;;;2047627;29;20082;-67
2021/07/31 03:51:41;;;;;;;8.63;6.28;;;21.40;71.80;;;;;;2048865;28;20395;-67
2021/07/31 03:52:41;;;;;;;7.10;6.40;;;21.40;72.00;;;;;;2048224;28;20031;-68
2021/07/31 03:53:42;;;;;;;7.63;6.28;;;21.40;72.10;;;;;;2048326;29;20035;-67
2021/07/31 03:54:43;;;;;;;7.28;6.53;;;21.40;72.50;;;;;;2048869;28;20031;-67
2021/07/31 03:55:48;;;;;;;10.32;6.80;;;21.40;72.30;;;;;;2048976;28;20043;-67
2021/07/31 03:56:49;;;;;;;7.75;6.50;;;21.40;72.70;;;;;;2048924;28;20511;-68
2021/07/31 03:57:59;;;;;;;9.10;6.35;;;21.40;73.00;;;;;;2048402;28;20031;-68
2021/07/31 03:59:00;;;;;;;7.97;6.60;;;21.40;72.60;;;;;;2048439;29;20364;-68
2021/07/31 04:00:01;;;;;;;7.82;6.50;;;21.40;72.90;;;;;;2048052;28;20031;-68
2021/07/31 04:01:02;;;;;;;10.13;6.70;;;21.40;73.60;;;;;;2048391;29;20027;-68
2021/07/31 04:02:05;;;;;;;7.13;6.28;;;21.40;73.60;;;;;;2040531;29;20035;-68
2021/07/31 04:03:10;;;;;;;8.80;6.88;;;21.40;73.80;;;;;;2048317;29;20550;-69
2021/07/31 04:04:13;;;;;;;8.27;6.72;;;21.40;74.20;;;;;;2040631;29;20113;-69
2021/07/31 04:05:16;;;;;;;9.25;6.82;;;21.40;73.90;;;;;;2048334;29;20434;-69
2021/07/31 04:06:36;;;;;;;7.00;6.15;;;21.30;74.20;;;;;;2048661;28;20039;-69
2021/07/31 04:07:46;;;;;;;8.63;6.47;;;21.30;74.20;;;;;;2048922;28;20466;-68
2021/07/31 04:09:06;;;;;;;8.48;6.63;;;21.30;73.30;;;;;;2048647;28;20487;-68
2021/07/31 04:10:13;;;;;;;9.10;6.80;;;21.30;72.80;;;;;;2048192;28;20683;-69
2021/07/31 04:11:32;;;;;;;7.13;6.40;;;21.30;73.10;;;;;;2048387;29;20553;-69
2021/07/31 04:12:51;;;;;;;7.28;6.53;;;21.30;73.40;;;;;;2048550;29;20039;-69
2021/07/31 04:14:12;;;;;;;12.38;6.50;;;21.30;74.30;;;;;;2048379;29;20036;-68
2021/07/31 04:15:18;;;;;;;8.73;6.47;;;21.30;75.10;;;;;;2048716;28;20034;-70
2021/07/31 04:16:19;;;;;;;8.20;6.93;;;21.30;75.20;;;;;;2048087;29;20114;-68
2021/07/31 04:17:20;;;;;;;7.15;6.45;;;21.30;75.30;;;;;;2040223;29;20030;-68
2021/07/31 04:18:24;;;;;;;9.93;7.18;;;21.30;75.60;;;;;;2048329;29;20399;-68
2021/07/31 04:19:25;;;;;;;7.55;6.75;;;21.30;75.70;;;;;;2048079;28;20035;-68
2021/07/31 04:20:26;;;;;;;9.45;6.90;;;21.30;75.60;;;;;;2047350;29;20031;-68
2021/07/31 04:21:27;;;;;;;10.27;7.03;;;21.30;75.40;;;;;;2048595;28;20043;-66
2021/07/31 04:22:27;;;;;;;8.60;7.05;;;21.30;75.70;;;;;;2048684;28;20078;-68
2021/07/31 04:23:28;;;;;;;8.15;6.90;;;21.30;75.70;;;;;;2048766;28;20024;-68
2021/07/31 04:24:31;;;;;;;10.40;7.07;;;21.30;75.80;;;;;;2048877;28;20070;-69
2021/07/31 04:25:32;;;;;;;7.78;6.50;;;21.30;75.10;;;;;;2048032;28;20035;-67
2021/07/31 04:26:32;;;;;;;7.35;6.57;;;21.30;75.00;;;;;;2047845;28;20031;-67
2021/07/31 04:27:33;;;;;;;9.38;7.03;;;21.30;75.30;;;;;;2048167;28;20031;-68
2021/07/31 04:28:34;;;;;;;9.05;6.60;;;21.20;75.40;;;;;;2048650;28;20031;-68
2021/07/31 04:29:34;;;;;;;9.60;7.13;;;21.30;75.30;;;;;;2048590;28;20027;-69
2021/07/31 04:30:36;;;;;;;8.70;6.75;;;21.30;75.30;;;;;;2047896;28;20661;-68
2021/07/31 04:31:37;;;;;;;9.38;6.80;;;21.20;75.20;;;;;;2048677;28;20035;-68
2021/07/31 04:32:37;;;;;;;10.18;6.53;;;21.20;75.60;;;;;;2048620;28;20027;-69
2021/07/31 04:33:39;;;;;;;7.90;6.68;;;21.30;74.30;;;;;;2048522;28;20038;-69
2021/07/31 04:34:39;;;;;;;8.23;6.85;;;21.20;74.00;;;;;;2047889;29;20019;-68
2021/07/31 04:35:40;;;;;;;9.88;6.85;;;21.20;74.20;;;;;;2047956;28;20038;-68
2021/07/31 04:36:42;;;;;;;10.00;6.60;;;21.20;74.40;;;;;;2048354;28;20035;-68
2021/07/31 04:37:42;;;;;;;7.82;6.40;;;21.20;74.00;;;;;;2048690;28;20032;-69
2021/07/31 04:38:43;;;;;;;8.00;7.20;;;21.20;74.00;;;;;;2047907;28;20516;-69
2021/07/31 04:39:43;;;;;;;10.95;6.60;;;21.20;74.40;;;;;;2048047;29;20107;-69
2021/07/31 04:40:44;;;;;;;8.20;6.60;;;21.20;74.10;;;;;;2047497;29;20121;-68
2021/07/31 04:41:44;;;;;;;7.03;6.32;;;21.20;74.10;;;;;;2048223;29;20114;-69
2021/07/31 04:42:45;;;;;;;6.80;6.10;;;21.20;74.10;;;;;;2047981;29;20031;-69
2021/07/31 04:43:46;;;;;;;8.45;6.65;;;21.20;74.00;;;;;;2040288;29;20041;-68
2021/07/31 04:44:46;;;;;;;9.23;6.35;;;21.20;73.70;;;;;;2047978;29;20098;-68
2021/07/31 04:45:47;;;;;;;8.35;6.47;;;21.20;73.40;;;;;;2048338;29;20066;-68
2021/07/31 04:46:47;;;;;;;8.15;6.70;;;21.30;73.60;;;;;;2048115;29;20039;-69
2021/07/31 04:47:48;;;;;;;8.20;6.53;;;21.30;73.30;;;;;;2048760;28;20032;-67
2021/07/31 04:48:49;;;;;;;7.05;6.32;;;21.40;72.90;;;;;;2048222;29;20042;-68
2021/07/31 04:49:49;;;;;;;7.97;6.40;;;21.40;72.80;;;;;;2048173;29;20058;-68
2021/07/31 04:50:57;;;;;;;11.10;6.32;;;21.40;72.50;;;;;;2047897;28;20031;-67
2021/07/31 04:51:57;;;;;;;8.00;6.00;;;21.50;72.40;;;;;;2048640;28;20110;-68
2021/07/31 04:52:58;;;;;;;7.07;5.70;;;21.50;72.10;;;;;;2048735;28;20030;-67
2021/07/31 04:53:59;;;;;;;9.30;6.28;;;21.50;72.00;;;;;;2048876;28;20451;-69
2021/07/31 04:54:59;;;;;;;7.72;6.30;;;21.50;72.30;;;;;;2048748;28;20110;-69
2021/07/31 04:56:00;;;;;;;6.53;5.80;;;21.60;72.40;;;;;;2048681;28;20518;-69
2021/07/31 04:57:04;;;;;;;11.48;6.00;;;21.60;72.20;;;;;;2048900;28;20027;-67
2021/07/31 04:58:04;;;;;;;6.30;5.70;;;21.70;71.40;;;;;;2048114;29;20031;-69
2021/07/31 04:59:05;;;;;;;6.68;6.00;;;21.80;71.50;;;;;;2048073;28;20037;-68
2021/07/31 05:00:06;;;;;;;8.68;6.10;;;21.70;70.80;;;;;;2047106;28;20065;-70
2021/07/31 05:01:07;;;;;;;8.52;6.30;;;21.70;71.40;;;;;;2047644;28;20020;-69
2021/07/31 05:02:07;;;;;;;6.97;6.03;;;21.70;71.70;;;;;;2048445;28;20132;-70
2021/07/31 05:03:08;;;;;;;8.65;6.20;;;21.80;71.30;;;;;;2048459;28;20114;-69
2021/07/31 05:04:09;;;;;;;10.10;6.10;;;21.80;70.80;;;;;;2047790;28;20035;-68
2021/07/31 05:05:09;;;;;;;6.88;5.72;;;21.90;70.60;;;;;;2047707;29;20057;-68
2021/07/31 05:06:10;;;;;;;7.32;5.20;;;22.30;69.70;;;;;;2048329;28;20047;-71
2021/07/31 05:07:10;;;;;;;8.52;5.88;;;22.60;68.40;;;;;;2048381;28;20031;-70
2021/07/31 05:08:12;;;;;;;7.05;5.78;;;22.90;66.70;;;;;;2048399;28;20534;-68
2021/07/31 05:09:14;;;;;;;7.65;5.85;;;23.40;65.30;;;;;;2047731;28;20031;-67
2021/07/31 05:10:14;;;;;;;8.40;5.50;;;23.60;63.00;;;;;;2046976;29;20027;-69
2021/07/31 05:11:15;;;;;;;7.13;5.50;;;23.90;62.50;;;;;;2039996;29;20039;-67
2021/07/31 05:12:16;;;;;;;7.05;5.57;;;24.20;61.60;;;;;;2039948;29;20119;-67
2021/07/31 05:13:17;;;;;;;6.15;5.35;;;24.50;59.70;;;;;;2048266;28;20098;-67
2021/07/31 05:14:18;;;;;;;6.78;4.82;;;24.70;58.80;;;;;;2048010;28;20039;-67
2021/07/31 05:15:18;;;;;;;7.88;5.18;;;24.90;58.00;;;;;;2048207;28;20020;-67
2021/07/31 05:16:19;;;;;;;5.55;4.95;;;24.90;57.30;;;;;;2047600;28;20114;-67
2021/07/31 05:17:20;;;;;;;5.93;5.25;;;25.10;57.10;;;;;;2039949;29;20114;-67
2021/07/31 05:18:22;;;;;;;5.88;4.70;;;25.10;56.90;;;;;;2047691;29;20019;-69
2021/07/31 05:19:22;;;;;;;7.03;5.00;;;25.30;57.00;;;;;;2048173;28;20627;-68
2021/07/31 05:20:23;;;;;;;5.03;4.60;;;25.50;56.40;;;;;;2047501;28;20406;-66
2021/07/31 05:21:23;;;;;;;7.57;4.88;;;25.60;55.90;;;;;;2048228;28;20061;-67
2021/07/31 05:22:24;;;;;;;6.18;4.78;;;25.70;55.40;;;;;;2048306;28;20361;-66
2021/07/31 05:23:25;;;;;;;7.20;4.97;;;25.80;55.40;;;;;;2048326;28;20027;-67
2021/07/31 05:24:25;;;;;;;5.38;4.70;;;25.80;55.20;;;;;;2047524;28;20036;-67
2021/07/31 05:25:26;;;;;;;7.43;4.72;;;26.00;54.80;;;;;;2039633;29;20032;-69
2021/07/31 05:26:29;;;;;;;5.45;4.50;;;26.20;54.40;;;;;;2047475;29;20562;-68
2021/07/31 05:27:30;;;;;;;4.80;4.40;;;26.30;54.00;;;;;;2048227;28;20032;-67
2021/07/31 05:28:30;;;;;;;7.45;4.63;;;26.50;53.70;;;;;;2048212;28;20121;-66